sensor_id;sensor_type;location;lat;lon;timestamp;P1;durP1;ratioP1;P2;durP2;ratioP2
44358;SDS011;30077;52.474;13.326;2022-07-24T00:00:40;3.42;;;2.60;;
44358;SDS011;30077;52.474;13.326;2022-07-24T00:05:40;3.83;;;2.47;;
44358;SDS011;30077;52.474;13.326;2022-07-24T00:10:41;2.30;;;2.10;;
44358;SDS011;30077;52.474;13.326;2022-07-24T00:15:41;4.32;;;2.42;;
44358;SDS011;30077;52.474;13.326;2022-07-24T00:20:41;4.80;;;2.47;;
44358;SDS011;30077;52.474;13.326;2022-07-24T00:25:42;6.75;;;2.45;;
44358;SDS011;30077;52.474;13.326;2022-07-24T00:30:42;4.68;;;3.20;;
44358;SDS011;30077;52.474;13.326;2022-07-24T00:35:42;5.93;;;3.43;;
44358;SDS011;30077;52.474;13.326;2022-07-24T00:40:43;6.38;;;2.90;;
44358;SDS011;30077;52.474;13.326;2022-07-24T00:45:43;7.13;;;3.70;;
44358;SDS011;30077;52.474;13.326;2022-07-24T00:50:44;5.15;;;3.55;;
44358;SDS011;30077;52.474;13.326;2022-07-24T00:55:44;5.33;;;3.37;;
44358;SDS011;30077;52.474;13.326;2022-07-24T01:00:44;6.03;;;3.60;;
44358;SDS011;30077;52.474;13.326;2022-07-24T01:05:45;7.47;;;3.25;;
44358;SDS011;30077;52.474;13.326;2022-07-24T01:10:45;8.60;;;3.90;;
44358;SDS011;30077;52.474;13.326;2022-07-24T01:15:46;8.00;;;3.95;;
44358;SDS011;30077;52.474;13.326;2022-07-24T01:20:47;5.72;;;3.45;;
44358;SDS011;30077;52.474;13.326;2022-07-24T01:25:48;5.38;;;2.80;;
44358;SDS011;30077;52.474;13.326;2022-07-24T01:30:48;4.05;;;2.80;;
44358;SDS011;30077;52.474;13.326;2022-07-24T01:35:49;6.23;;;3.00;;
44358;SDS011;30077;52.474;13.326;2022-07-24T01:40:51;7.90;;;3.10;;
44358;SDS011;30077;52.474;13.326;2022-07-24T01:45:51;5.45;;;3.13;;
44358;SDS011;30077;52.474;13.326;2022-07-24T01:50:51;3.95;;;2.53;;
44358;SDS011;30077;52.474;13.326;2022-07-24T01:55:52;7.13;;;2.75;;
44358;SDS011;30077;52.474;13.326;2022-07-24T02:00:53;3.80;;;2.40;;
44358;SDS011;30077;52.474;13.326;2022-07-24T02:05:53;3.38;;;2.20;;
44358;SDS011;30077;52.474;13.326;2022-07-24T02:10:54;2.87;;;1.90;;
44358;SDS011;30077;52.474;13.326;2022-07-24T02:15:54;2.20;;;2.03;;
44358;SDS011;30077;52.474;13.326;2022-07-24T02:20:54;4.25;;;2.03;;
44358;SDS011;30077;52.474;13.326;2022-07-24T02:25:54;4.13;;;2.40;;
44358;SDS011;30077;52.474;13.326;2022-07-24T02:30:55;3.63;;;2.35;;
44358;SDS011;30077;52.474;13.326;2022-07-24T02:35:55;3.10;;;2.10;;
44358;SDS011;30077;52.474;13.326;2022-07-24T02:40:55;3.00;;;2.45;;
44358;SDS011;30077;52.474;13.326;2022-07-24T02:45:56;4.05;;;2.17;;
44358;SDS011;30077;52.474;13.326;2022-07-24T02:50:56;3.53;;;2.30;;
44358;SDS011;30077;52.474;13.326;2022-07-24T02:55:56;2.40;;;1.93;;
44358;SDS011;30077;52.474;13.326;2022-07-24T03:00:56;3.00;;;1.90;;
44358;SDS011;30077;52.474;13.326;2022-07-24T03:05:57;2.25;;;2.05;;
44358;SDS011;30077;52.474;13.326;2022-07-24T03:10:57;2.20;;;2.00;;
44358;SDS011;30077;52.474;13.326;2022-07-24T03:15:57;4.97;;;2.20;;
44358;SDS011;30077;52.474;13.326;2022-07-24T03:20:58;2.47;;;1.92;;
44358;SDS011;30077;52.474;13.326;2022-07-24T03:25:58;4.10;;;2.10;;
44358;SDS011;30077;52.474;13.326;2022-07-24T03:30:58;3.58;;;2.00;;
44358;SDS011;30077;52.474;13.326;2022-07-24T03:36:00;2.08;;;1.67;;
44358;SDS011;30077;52.474;13.326;2022-07-24T03:41:00;2.17;;;1.90;;
44358;SDS011;30077;52.474;13.326;2022-07-24T03:46:00;2.00;;;1.60;;
44358;SDS011;30077;52.474;13.326;2022-07-24T03:51:00;4.30;;;1.95;;
44358;SDS011;30077;52.474;13.326;2022-07-24T03:56:04;3.22;;;1.88;;
44358;SDS011;30077;52.474;13.326;2022-07-24T04:01:06;2.60;;;1.92;;
44358;SDS011;30077;52.474;13.326;2022-07-24T04:06:07;2.53;;;1.67;;
44358;SDS011;30077;52.474;13.326;2022-07-24T04:11:07;2.70;;;1.75;;
44358;SDS011;30077;52.474;13.326;2022-07-24T04:16:07;5.17;;;2.10;;
44358;SDS011;30077;52.474;13.326;2022-07-24T04:21:07;2.40;;;2.20;;
44358;SDS011;30077;52.474;13.326;2022-07-24T04:26:08;3.15;;;2.03;;
44358;SDS011;30077;52.474;13.326;2022-07-24T04:31:08;2.78;;;1.80;;
44358;SDS011;30077;52.474;13.326;2022-07-24T04:36:09;4.43;;;1.70;;
44358;SDS011;30077;52.474;13.326;2022-07-24T04:41:09;4.05;;;2.10;;
44358;SDS011;30077;52.474;13.326;2022-07-24T04:46:09;1.85;;;1.58;;
44358;SDS011;30077;52.474;13.326;2022-07-24T04:51:10;3.03;;;1.97;;
44358;SDS011;30077;52.474;13.326;2022-07-24T04:56:10;3.30;;;1.90;;
44358;SDS011;30077;52.474;13.326;2022-07-24T05:01:10;7.82;;;1.60;;
44358;SDS011;30077;52.474;13.326;2022-07-24T05:06:11;5.50;;;1.83;;
44358;SDS011;30077;52.474;13.326;2022-07-24T05:11:11;2.90;;;1.92;;
44358;SDS011;30077;52.474;13.326;2022-07-24T05:16:11;3.95;;;2.00;;
44358;SDS011;30077;52.474;13.326;2022-07-24T05:21:11;2.05;;;1.75;;
44358;SDS011;30077;52.474;13.326;2022-07-24T05:26:14;4.18;;;1.60;;
44358;SDS011;30077;52.474;13.326;2022-07-24T05:31:14;2.80;;;1.83;;
44358;SDS011;30077;52.474;13.326;2022-07-24T05:36:14;2.35;;;1.42;;
44358;SDS011;30077;52.474;13.326;2022-07-24T05:41:15;2.70;;;1.73;;
44358;SDS011;30077;52.474;13.326;2022-07-24T05:46:15;1.75;;;1.40;;
44358;SDS011;30077;52.474;13.326;2022-07-24T05:51:15;1.57;;;1.40;;
44358;SDS011;30077;52.474;13.326;2022-07-24T05:56:15;2.00;;;1.50;;
44358;SDS011;30077;52.474;13.326;2022-07-24T06:01:16;4.32;;;1.70;;
44358;SDS011;30077;52.474;13.326;2022-07-24T06:06:16;1.92;;;1.52;;
44358;SDS011;30077;52.474;13.326;2022-07-24T06:11:17;3.08;;;1.45;;
44358;SDS011;30077;52.474;13.326;2022-07-24T06:16:22;1.70;;;1.45;;
44358;SDS011;30077;52.474;13.326;2022-07-24T06:21:24;2.13;;;1.33;;
44358;SDS011;30077;52.474;13.326;2022-07-24T06:26:24;2.08;;;1.83;;
44358;SDS011;30077;52.474;13.326;2022-07-24T06:31:24;2.42;;;1.50;;
44358;SDS011;30077;52.474;13.326;2022-07-24T06:36:25;3.13;;;1.67;;
44358;SDS011;30077;52.474;13.326;2022-07-24T06:41:25;2.45;;;1.42;;
44358;SDS011;30077;52.474;13.326;2022-07-24T06:46:25;4.93;;;1.80;;
44358;SDS011;30077;52.474;13.326;2022-07-24T06:51:26;2.65;;;1.50;;
44358;SDS011;30077;52.474;13.326;2022-07-24T06:56:26;4.15;;;2.10;;
44358;SDS011;30077;52.474;13.326;2022-07-24T07:01:26;2.92;;;2.50;;
44358;SDS011;30077;52.474;13.326;2022-07-24T07:06:27;4.67;;;1.87;;
44358;SDS011;30077;52.474;13.326;2022-07-24T07:11:27;4.70;;;2.50;;
44358;SDS011;30077;52.474;13.326;2022-07-24T07:16:27;3.85;;;1.60;;
44358;SDS011;30077;52.474;13.326;2022-07-24T07:21:28;4.10;;;1.67;;
44358;SDS011;30077;52.474;13.326;2022-07-24T07:26:28;2.90;;;1.93;;
44358;SDS011;30077;52.474;13.326;2022-07-24T07:31:28;2.58;;;1.40;;
44358;SDS011;30077;52.474;13.326;2022-07-24T07:36:29;1.60;;;1.33;;
44358;SDS011;30077;52.474;13.326;2022-07-24T07:41:29;2.30;;;1.63;;
44358;SDS011;30077;52.474;13.326;2022-07-24T07:46:29;2.53;;;1.35;;
44358;SDS011;30077;52.474;13.326;2022-07-24T07:51:30;6.88;;;1.40;;
44358;SDS011;30077;52.474;13.326;2022-07-24T07:56:30;4.13;;;1.70;;
44358;SDS011;30077;52.474;13.326;2022-07-24T08:01:32;4.75;;;2.08;;
44358;SDS011;30077;52.474;13.326;2022-07-24T08:06:32;5.18;;;1.30;;
44358;SDS011;30077;52.474;13.326;2022-07-24T08:11:33;4.50;;;1.70;;
44358;SDS011;30077;52.474;13.326;2022-07-24T08:16:33;5.13;;;1.87;;
44358;SDS011;30077;52.474;13.326;2022-07-24T08:21:33;2.55;;;1.30;;
44358;SDS011;30077;52.474;13.326;2022-07-24T08:26:33;2.50;;;1.33;;
44358;SDS011;30077;52.474;13.326;2022-07-24T08:31:34;4.72;;;1.60;;
44358;SDS011;30077;52.474;13.326;2022-07-24T08:36:34;3.25;;;1.60;;
44358;SDS011;30077;52.474;13.326;2022-07-24T08:41:34;3.85;;;1.80;;
44358;SDS011;30077;52.474;13.326;2022-07-24T08:46:38;1.60;;;1.30;;
44358;SDS011;30077;52.474;13.326;2022-07-24T08:51:41;2.65;;;1.58;;
44358;SDS011;30077;52.474;13.326;2022-07-24T08:56:42;2.33;;;1.33;;
44358;SDS011;30077;52.474;13.326;2022-07-24T09:01:43;1.73;;;1.40;;
44358;SDS011;30077;52.474;13.326;2022-07-24T09:06:55;5.22;;;1.83;;
44358;SDS011;30077;52.474;13.326;2022-07-24T09:12:16;2.05;;;1.50;;
44358;SDS011;30077;52.474;13.326;2022-07-24T09:17:18;1.65;;;1.55;;
44358;SDS011;30077;52.474;13.326;2022-07-24T09:27:26;2.08;;;1.70;;
44358;SDS011;30077;52.474;13.326;2022-07-24T09:32:26;3.47;;;1.90;;
44358;SDS011;30077;52.474;13.326;2022-07-24T09:37:26;2.85;;;2.00;;
44358;SDS011;30077;52.474;13.326;2022-07-24T09:42:29;4.20;;;2.10;;
44358;SDS011;30077;52.474;13.326;2022-07-24T09:47:30;2.60;;;1.65;;
44358;SDS011;30077;52.474;13.326;2022-07-24T09:52:33;3.33;;;1.60;;
44358;SDS011;30077;52.474;13.326;2022-07-24T09:57:35;2.80;;;1.38;;
44358;SDS011;30077;52.474;13.326;2022-07-24T10:02:38;2.05;;;1.60;;
44358;SDS011;30077;52.474;13.326;2022-07-24T10:07:44;2.25;;;1.65;;
44358;SDS011;30077;52.474;13.326;2022-07-24T10:12:47;3.03;;;1.75;;
44358;SDS011;30077;52.474;13.326;2022-07-24T10:23:15;2.20;;;1.90;;
44358;SDS011;30077;52.474;13.326;2022-07-24T10:28:30;1.75;;;1.60;;
44358;SDS011;30077;52.474;13.326;2022-07-24T10:33:42;3.92;;;2.00;;
44358;SDS011;30077;52.474;13.326;2022-07-24T10:38:55;2.53;;;1.98;;
44358;SDS011;30077;52.474;13.326;2022-07-24T10:44:18;3.63;;;2.08;;
44358;SDS011;30077;52.474;13.326;2022-07-24T10:49:32;3.60;;;1.77;;
44358;SDS011;30077;52.474;13.326;2022-07-24T10:54:43;2.25;;;1.60;;
44358;SDS011;30077;52.474;13.326;2022-07-24T10:59:43;2.72;;;1.75;;
44358;SDS011;30077;52.474;13.326;2022-07-24T11:04:44;4.05;;;1.85;;
44358;SDS011;30077;52.474;13.326;2022-07-24T11:09:55;2.83;;;1.90;;
44358;SDS011;30077;52.474;13.326;2022-07-24T11:15:02;2.30;;;1.90;;
44358;SDS011;30077;52.474;13.326;2022-07-24T11:20:22;3.08;;;2.10;;
44358;SDS011;30077;52.474;13.326;2022-07-24T11:25:23;3.10;;;1.90;;
44358;SDS011;30077;52.474;13.326;2022-07-24T11:30:26;1.60;;;1.50;;
44358;SDS011;30077;52.474;13.326;2022-07-24T11:35:29;1.70;;;1.60;;
44358;SDS011;30077;52.474;13.326;2022-07-24T11:40:34;1.75;;;1.65;;
44358;SDS011;30077;52.474;13.326;2022-07-24T11:45:35;2.57;;;2.37;;
44358;SDS011;30077;52.474;13.326;2022-07-24T11:50:36;2.55;;;1.95;;
44358;SDS011;30077;52.474;13.326;2022-07-24T11:55:36;10.83;;;7.17;;
44358;SDS011;30077;52.474;13.326;2022-07-24T12:00:37;10.45;;;6.85;;
44358;SDS011;30077;52.474;13.326;2022-07-24T12:05:37;25.73;;;14.80;;
44358;SDS011;30077;52.474;13.326;2022-07-24T12:10:38;2.50;;;2.15;;
44358;SDS011;30077;52.474;13.326;2022-07-24T12:15:39;2.67;;;1.88;;
44358;SDS011;30077;52.474;13.326;2022-07-24T12:20:41;2.20;;;1.90;;
44358;SDS011;30077;52.474;13.326;2022-07-24T12:25:43;3.17;;;2.10;;
44358;SDS011;30077;52.474;13.326;2022-07-24T12:30:45;2.10;;;1.90;;
44358;SDS011;30077;52.474;13.326;2022-07-24T12:35:57;2.05;;;1.80;;
44358;SDS011;30077;52.474;13.326;2022-07-24T12:41:12;1.95;;;1.70;;
44358;SDS011;30077;52.474;13.326;2022-07-24T12:46:14;2.20;;;1.80;;
44358;SDS011;30077;52.474;13.326;2022-07-24T12:51:15;1.98;;;1.73;;
44358;SDS011;30077;52.474;13.326;2022-07-24T12:56:16;4.28;;;2.10;;
44358;SDS011;30077;52.474;13.326;2022-07-24T13:01:17;2.75;;;1.90;;
44358;SDS011;30077;52.474;13.326;2022-07-24T13:06:18;3.80;;;1.90;;
44358;SDS011;30077;52.474;13.326;2022-07-24T13:11:18;2.83;;;1.73;;
44358;SDS011;30077;52.474;13.326;2022-07-24T13:16:19;2.58;;;2.08;;
44358;SDS011;30077;52.474;13.326;2022-07-24T13:21:19;1.65;;;1.50;;
44358;SDS011;30077;52.474;13.326;2022-07-24T13:26:20;2.20;;;1.60;;
44358;SDS011;30077;52.474;13.326;2022-07-24T13:31:21;2.15;;;1.80;;
44358;SDS011;30077;52.474;13.326;2022-07-24T13:36:21;3.50;;;1.83;;
44358;SDS011;30077;52.474;13.326;2022-07-24T13:41:21;1.60;;;1.40;;
44358;SDS011;30077;52.474;13.326;2022-07-24T13:46:22;2.40;;;1.63;;
44358;SDS011;30077;52.474;13.326;2022-07-24T13:51:23;3.63;;;1.90;;
44358;SDS011;30077;52.474;13.326;2022-07-24T13:56:23;4.30;;;1.85;;
44358;SDS011;30077;52.474;13.326;2022-07-24T14:01:24;3.93;;;1.87;;
44358;SDS011;30077;52.474;13.326;2022-07-24T14:06:25;1.77;;;1.60;;
44358;SDS011;30077;52.474;13.326;2022-07-24T14:11:26;3.83;;;1.60;;
44358;SDS011;30077;52.474;13.326;2022-07-24T14:16:26;3.65;;;1.88;;
44358;SDS011;30077;52.474;13.326;2022-07-24T14:21:26;2.03;;;1.85;;
44358;SDS011;30077;52.474;13.326;2022-07-24T14:26:27;2.10;;;1.80;;
44358;SDS011;30077;52.474;13.326;2022-07-24T14:31:27;2.17;;;2.05;;
44358;SDS011;30077;52.474;13.326;2022-07-24T14:36:27;3.50;;;2.10;;
44358;SDS011;30077;52.474;13.326;2022-07-24T14:41:27;2.15;;;1.92;;
44358;SDS011;30077;52.474;13.326;2022-07-24T14:46:28;2.53;;;2.33;;
44358;SDS011;30077;52.474;13.326;2022-07-24T14:51:28;1.77;;;1.67;;
44358;SDS011;30077;52.474;13.326;2022-07-24T14:56:28;2.42;;;1.83;;
44358;SDS011;30077;52.474;13.326;2022-07-24T15:01:28;1.77;;;1.67;;
44358;SDS011;30077;52.474;13.326;2022-07-24T15:06:29;1.80;;;1.70;;
44358;SDS011;30077;52.474;13.326;2022-07-24T15:11:29;2.00;;;1.80;;
44358;SDS011;30077;52.474;13.326;2022-07-24T15:16:29;1.70;;;1.60;;
44358;SDS011;30077;52.474;13.326;2022-07-24T15:21:30;5.32;;;1.95;;
44358;SDS011;30077;52.474;13.326;2022-07-24T15:26:30;1.65;;;1.55;;
44358;SDS011;30077;52.474;13.326;2022-07-24T15:31:30;2.53;;;1.87;;
44358;SDS011;30077;52.474;13.326;2022-07-24T15:36:31;1.80;;;1.70;;
44358;SDS011;30077;52.474;13.326;2022-07-24T15:41:31;2.92;;;1.98;;
44358;SDS011;30077;52.474;13.326;2022-07-24T15:46:31;2.10;;;1.70;;
44358;SDS011;30077;52.474;13.326;2022-07-24T15:51:32;2.20;;;1.90;;
44358;SDS011;30077;52.474;13.326;2022-07-24T15:56:33;2.13;;;1.90;;
44358;SDS011;30077;52.474;13.326;2022-07-24T16:01:34;4.47;;;2.15;;
44358;SDS011;30077;52.474;13.326;2022-07-24T16:06:34;4.77;;;2.27;;
44358;SDS011;30077;52.474;13.326;2022-07-24T16:11:34;1.92;;;1.83;;
44358;SDS011;30077;52.474;13.326;2022-07-24T16:16:35;3.20;;;2.00;;
44358;SDS011;30077;52.474;13.326;2022-07-24T16:21:35;2.83;;;1.70;;
44358;SDS011;30077;52.474;13.326;2022-07-24T16:26:35;2.08;;;1.88;;
44358;SDS011;30077;52.474;13.326;2022-07-24T16:31:36;1.65;;;1.50;;
44358;SDS011;30077;52.474;13.326;2022-07-24T16:36:38;2.85;;;1.80;;
44358;SDS011;30077;52.474;13.326;2022-07-24T16:41:38;1.80;;;1.70;;
44358;SDS011;30077;52.474;13.326;2022-07-24T16:46:38;3.08;;;2.25;;
44358;SDS011;30077;52.474;13.326;2022-07-24T16:51:39;2.10;;;1.90;;
44358;SDS011;30077;52.474;13.326;2022-07-24T16:56:40;1.90;;;1.48;;
44358;SDS011;30077;52.474;13.326;2022-07-24T17:01:40;3.35;;;3.03;;
44358;SDS011;30077;52.474;13.326;2022-07-24T17:06:40;4.10;;;3.70;;
44358;SDS011;30077;52.474;13.326;2022-07-24T17:11:43;3.10;;;2.67;;
44358;SDS011;30077;52.474;13.326;2022-07-24T17:16:43;3.88;;;3.00;;
44358;SDS011;30077;52.474;13.326;2022-07-24T17:21:44;4.37;;;1.90;;
44358;SDS011;30077;52.474;13.326;2022-07-24T17:26:44;2.03;;;1.93;;
44358;SDS011;30077;52.474;13.326;2022-07-24T17:31:45;2.90;;;2.30;;
44358;SDS011;30077;52.474;13.326;2022-07-24T17:36:45;2.55;;;1.98;;
44358;SDS011;30077;52.474;13.326;2022-07-24T17:41:45;2.40;;;2.20;;
44358;SDS011;30077;52.474;13.326;2022-07-24T17:46:45;3.90;;;1.65;;
44358;SDS011;30077;52.474;13.326;2022-07-24T17:51:46;3.55;;;3.10;;
44358;SDS011;30077;52.474;13.326;2022-07-24T17:56:46;3.90;;;3.50;;
44358;SDS011;30077;52.474;13.326;2022-07-24T18:01:46;3.10;;;2.73;;
44358;SDS011;30077;52.474;13.326;2022-07-24T18:06:47;2.53;;;2.13;;
44358;SDS011;30077;52.474;13.326;2022-07-24T18:11:47;2.83;;;1.92;;
44358;SDS011;30077;52.474;13.326;2022-07-24T18:16:48;2.90;;;2.03;;
44358;SDS011;30077;52.474;13.326;2022-07-24T18:21:48;2.10;;;1.90;;
44358;SDS011;30077;52.474;13.326;2022-07-24T18:26:48;2.20;;;2.00;;
44358;SDS011;30077;52.474;13.326;2022-07-24T18:31:49;4.03;;;2.10;;
44358;SDS011;30077;52.474;13.326;2022-07-24T18:36:49;2.40;;;2.20;;
44358;SDS011;30077;52.474;13.326;2022-07-24T18:41:49;2.60;;;2.13;;
44358;SDS011;30077;52.474;13.326;2022-07-24T18:46:49;2.75;;;2.50;;
44358;SDS011;30077;52.474;13.326;2022-07-24T18:51:50;4.05;;;2.40;;
44358;SDS011;30077;52.474;13.326;2022-07-24T18:56:51;2.20;;;1.97;;
44358;SDS011;30077;52.474;13.326;2022-07-24T19:01:52;2.87;;;2.10;;
44358;SDS011;30077;52.474;13.326;2022-07-24T19:06:52;3.53;;;2.20;;
44358;SDS011;30077;52.474;13.326;2022-07-24T19:11:52;3.47;;;2.40;;
44358;SDS011;30077;52.474;13.326;2022-07-24T19:16:52;2.88;;;2.55;;
44358;SDS011;30077;52.474;13.326;2022-07-24T19:21:53;3.75;;;3.33;;
44358;SDS011;30077;52.474;13.326;2022-07-24T19:26:53;3.83;;;3.33;;
44358;SDS011;30077;52.474;13.326;2022-07-24T19:31:53;3.47;;;3.17;;
44358;SDS011;30077;52.474;13.326;2022-07-24T19:36:58;4.68;;;3.58;;
44358;SDS011;30077;52.474;13.326;2022-07-24T19:42:00;7.75;;;3.80;;
44358;SDS011;30077;52.474;13.326;2022-07-24T19:47:01;5.18;;;3.70;;
44358;SDS011;30077;52.474;13.326;2022-07-24T19:52:01;5.80;;;4.03;;
44358;SDS011;30077;52.474;13.326;2022-07-24T19:57:01;5.10;;;3.53;;
44358;SDS011;30077;52.474;13.326;2022-07-24T20:02:02;9.93;;;5.90;;
44358;SDS011;30077;52.474;13.326;2022-07-24T20:07:02;7.05;;;4.93;;
44358;SDS011;30077;52.474;13.326;2022-07-24T20:12:03;5.95;;;4.20;;
44358;SDS011;30077;52.474;13.326;2022-07-24T20:17:04;7.80;;;4.68;;
44358;SDS011;30077;52.474;13.326;2022-07-24T20:22:04;6.00;;;4.15;;
44358;SDS011;30077;52.474;13.326;2022-07-24T20:27:10;7.45;;;4.15;;
44358;SDS011;30077;52.474;13.326;2022-07-24T20:32:10;5.93;;;4.75;;
44358;SDS011;30077;52.474;13.326;2022-07-24T20:37:13;6.45;;;4.57;;
44358;SDS011;30077;52.474;13.326;2022-07-24T20:42:14;5.07;;;4.47;;
44358;SDS011;30077;52.474;13.326;2022-07-24T20:47:14;8.37;;;4.20;;
44358;SDS011;30077;52.474;13.326;2022-07-24T20:52:14;6.32;;;4.50;;
44358;SDS011;30077;52.474;13.326;2022-07-24T20:57:15;5.00;;;4.50;;
44358;SDS011;30077;52.474;13.326;2022-07-24T21:02:16;6.95;;;5.03;;
44358;SDS011;30077;52.474;13.326;2022-07-24T21:07:16;7.30;;;4.93;;
44358;SDS011;30077;52.474;13.326;2022-07-24T21:12:16;11.25;;;8.32;;
44358;SDS011;30077;52.474;13.326;2022-07-24T21:17:17;19.73;;;13.10;;
44358;SDS011;30077;52.474;13.326;2022-07-24T21:22:17;10.27;;;7.05;;
44358;SDS011;30077;52.474;13.326;2022-07-24T21:27:17;6.83;;;4.63;;
44358;SDS011;30077;52.474;13.326;2022-07-24T21:32:18;7.30;;;4.32;;
44358;SDS011;30077;52.474;13.326;2022-07-24T21:37:18;5.15;;;3.90;;
44358;SDS011;30077;52.474;13.326;2022-07-24T21:42:18;4.43;;;4.03;;
44358;SDS011;30077;52.474;13.326;2022-07-24T21:47:19;9.10;;;4.50;;
44358;SDS011;30077;52.474;13.326;2022-07-24T21:52:19;5.13;;;4.30;;
44358;SDS011;30077;52.474;13.326;2022-07-24T21:57:19;4.90;;;3.90;;
44358;SDS011;30077;52.474;13.326;2022-07-24T22:02:22;6.30;;;5.28;;
44358;SDS011;30077;52.474;13.326;2022-07-24T22:07:23;4.38;;;3.90;;
44358;SDS011;30077;52.474;13.326;2022-07-24T22:12:24;5.70;;;3.90;;
44358;SDS011;30077;52.474;13.326;2022-07-24T22:17:24;6.60;;;4.10;;
44358;SDS011;30077;52.474;13.326;2022-07-24T22:22:25;8.20;;;3.53;;
44358;SDS011;30077;52.474;13.326;2022-07-24T22:27:25;3.75;;;3.45;;
44358;SDS011;30077;52.474;13.326;2022-07-24T22:32:25;7.17;;;4.53;;
44358;SDS011;30077;52.474;13.326;2022-07-24T22:37:26;3.60;;;3.20;;
44358;SDS011;30077;52.474;13.326;2022-07-24T22:42:29;3.55;;;3.15;;
44358;SDS011;30077;52.474;13.326;2022-07-24T22:47:30;5.43;;;3.30;;
44358;SDS011;30077;52.474;13.326;2022-07-24T22:52:31;5.78;;;3.40;;
44358;SDS011;30077;52.474;13.326;2022-07-24T22:57:32;5.85;;;3.20;;
44358;SDS011;30077;52.474;13.326;2022-07-24T23:02:35;3.42;;;3.05;;
44358;SDS011;30077;52.474;13.326;2022-07-24T23:07:35;4.32;;;2.65;;
44358;SDS011;30077;52.474;13.326;2022-07-24T23:12:36;3.43;;;2.80;;
44358;SDS011;30077;52.474;13.326;2022-07-24T23:17:36;3.35;;;2.80;;
44358;SDS011;30077;52.474;13.326;2022-07-24T23:22:37;5.88;;;3.47;;
44358;SDS011;30077;52.474;13.326;2022-07-24T23:27:37;3.28;;;2.97;;
44358;SDS011;30077;52.474;13.326;2022-07-24T23:32:37;4.23;;;2.70;;
44358;SDS011;30077;52.474;13.326;2022-07-24T23:37:38;3.47;;;3.10;;
44358;SDS011;30077;52.474;13.326;2022-07-24T23:42:38;3.30;;;3.00;;
44358;SDS011;30077;52.474;13.326;2022-07-24T23:47:38;3.60;;;2.83;;
44358;SDS011;30077;52.474;13.326;2022-07-24T23:52:38;4.27;;;2.60;;
44358;SDS011;30077;52.474;13.326;2022-07-24T23:57:39;2.90;;;2.70;;
